Data Viewer
| City | State | Eastern Time | Source | Temp | DewPt | RH | BP | 5 Min Precip | Wind Speed | Wind Dir | 5 Min Wind Max | 5 Min Wind Max Dir |
|---|---|---|---|---|---|---|---|---|---|---|---|---|
| Sussex | NJ | 2026-05-06 19:49 | ASOS | 61 | 54 | 77 | 29.76 | 6 | NNW | |||
| Sussex | NJ | 2026-05-07 11:35 | ASOS | 57 | 28 | 33 | 29.86 | 7 | N | |||
| Sussex | NJ | 2026-05-07 10:25 | ASOS | 55 | 28 | 35 | 29.88 | 6 | N | |||
| Sussex | NJ | 2026-05-07 10:35 | ASOS | 55 | 28 | 35 | 29.88 | 6 | NW | |||
| Sussex | NJ | 2026-05-07 10:53 | ASOS | 56 | 27 | 33 | 29.88 | 12 | WNW | |||
| Sussex | NJ | 2026-05-07 11:15 | ASOS | 57 | 28 | 33 | 29.87 | |||||
| Sussex | NJ | 2026-05-07 11:20 | ASOS | 57 | 26 | 31 | 29.87 | 9 | NNW | |||
| Sussex | NJ | 2026-05-07 11:25 | ASOS | 57 | 26 | 31 | 29.87 | 5 | WNW | |||
| Sussex | NJ | 2026-05-07 11:53 | ASOS | 58 | 28 | 32 | 29.86 | 8 | NW | |||
| Sussex | NJ | 2026-05-07 09:53 | ASOS | 54 | 29 | 38 | 29.90 | 9 | N | |||
| Sussex | NJ | 2026-05-07 12:05 | ASOS | 57 | 28 | 33 | 29.85 | 6 | WNW | |||
| Sussex | NJ | 2026-05-07 12:15 | ASOS | 59 | 28 | 31 | 29.84 | |||||
| Sussex | NJ | 2026-05-07 12:20 | ASOS | 57 | 26 | 31 | 29.84 | 3 | ENE | |||
| Sussex | NJ | 2026-05-07 12:25 | ASOS | 59 | 28 | 31 | 29.84 | |||||
| Sussex | NJ | 2026-05-07 12:53 | ASOS | 59 | 27 | 29 | 29.83 | 7 | ||||
| Sussex | NJ | 2026-05-07 13:05 | ASOS | 61 | 28 | 29 | 29.83 | 8 | NW | |||
| Sussex | NJ | 2026-05-07 10:20 | ASOS | 55 | 28 | 35 | 29.88 | |||||
| Sussex | NJ | 2026-05-07 09:35 | ASOS | 54 | 30 | 41 | 29.90 | 9 | N | |||
| Sussex | NJ | 2026-05-07 13:15 | ASOS | 61 | 26 | 27 | 29.82 | 7 | NW | |||
| Sussex | NJ | 2026-05-07 08:20 | ASOS | 52 | 34 | 50 | 29.89 | 8 | NNW | |||
| Sussex | NJ | 2026-05-07 07:20 | ASOS | 50 | 37 | 62 | 29.88 | 9 | NW | |||
| Sussex | NJ | 2026-05-07 07:25 | ASOS | 50 | 37 | 62 | 29.88 | 6 | N | |||
| Sussex | NJ | 2026-05-07 07:30 | ASOS | 52 | 37 | 58 | 29.88 | 5 | NW | |||
| Sussex | NJ | 2026-05-07 07:35 | ASOS | 52 | 39 | 62 | 29.88 | 5 | NNW | |||
| Sussex | NJ | 2026-05-07 07:53 | ASOS | 51 | 36 | 56 | 29.89 | 7 | NNE | |||
| Sussex | NJ | 2026-05-07 08:15 | ASOS | 52 | 34 | 50 | 29.89 | 8 | N | |||
| Sussex | NJ | 2026-05-07 08:25 | ASOS | 52 | 34 | 50 | 29.89 | 7 | N | |||
| Sussex | NJ | 2026-05-07 09:30 | ASOS | 54 | 30 | 41 | 29.89 | 5 | NNE | |||
| Sussex | NJ | 2026-05-07 08:30 | ASOS | 52 | 34 | 50 | 29.89 | 8 | NNW | |||
| Sussex | NJ | 2026-05-07 08:35 | ASOS | 52 | 34 | 50 | 29.89 | 7 | N | |||
| Sussex | NJ | 2026-05-07 08:53 | ASOS | 53 | 34 | 48 | 29.88 | 6 | ||||
| Sussex | NJ | 2026-05-07 09:15 | ASOS | 54 | 34 | 47 | 29.89 | 7 | NNE | |||
| Sussex | NJ | 2026-05-07 09:20 | ASOS | 54 | 34 | 47 | 29.90 | 6 | NW | |||
| Sussex | NJ | 2026-05-07 09:25 | ASOS | 54 | 30 | 41 | 29.90 | 9 | NW | |||
| Sussex | NJ | 2026-05-07 13:10 | ASOS | 61 | 28 | 29 | 29.83 | 3 | NNW | |||
| Sussex | NJ | 2026-05-07 13:20 | ASOS | 61 | 26 | 27 | 29.82 | 6 | N | |||
| Sussex | NJ | 2026-05-07 06:53 | ASOS | 49 | 38 | 66 | 29.87 | 6 | N | |||
| Sussex | NJ | 2026-05-07 18:20 | ASOS | 63 | 25 | 24 | 29.77 | 5 | NW | |||
| Sussex | NJ | 2026-05-07 17:25 | ASOS | 61 | 26 | 27 | 29.78 | 9 | N | |||
| Sussex | NJ | 2026-05-07 17:35 | ASOS | 61 | 26 | 27 | 29.78 | 5 | NNW | |||
| Sussex | NJ | 2026-05-07 17:53 | ASOS | 60 | 26 | 27 | 29.78 | 7 | N | |||
| Sussex | NJ | 2026-05-07 18:05 | ASOS | 61 | 26 | 27 | 29.78 | |||||
| Sussex | NJ | 2026-05-07 18:10 | ASOS | 63 | 26 | 25 | 29.78 | 9 | N | |||
| Sussex | NJ | 2026-05-07 18:15 | ASOS | 63 | 25 | 24 | 29.78 | 5 | NW | |||
| Sussex | NJ | 2026-05-07 18:25 | ASOS | 63 | 25 | 24 | 29.77 | 7 | NNW | |||
| Sussex | NJ | 2026-05-07 17:15 | ASOS | 63 | 25 | 24 | 29.78 | 9 | NW | |||
| Sussex | NJ | 2026-05-07 18:30 | ASOS | 63 | 25 | 24 | 29.77 | 6 | N | |||
| Sussex | NJ | 2026-05-07 18:35 | ASOS | 61 | 25 | 25 | 29.77 | 6 | N | |||
| Sussex | NJ | 2026-05-07 18:53 | ASOS | 60 | 27 | 28 | 29.78 | 5 | N | |||
| Sussex | NJ | 2026-05-07 19:15 | ASOS | 61 | 26 | 27 | 29.78 | 5 | NNW | |||
| Sussex | NJ | 2026-05-07 19:20 | ASOS | 61 | 25 | 25 | 29.79 | 5 | NNW | |||
| Sussex | NJ | 2026-05-07 19:25 | ASOS | 57 | 26 | 31 | 29.78 | 6 | N | |||
| Sussex | NJ | 2026-05-07 17:20 | ASOS | 63 | 25 | 24 | 29.78 | 6 | NW | |||
| Sussex | NJ | 2026-05-07 16:53 | ASOS | 62 | 27 | 26 | 29.78 | 6 | NNW | |||
| Sussex | NJ | 2026-05-07 13:25 | ASOS | 63 | 30 | 29 | 29.82 | 10 | NW | |||
| Sussex | NJ | 2026-05-07 14:53 | ASOS | 63 | 28 | 27 | 29.79 | 8 | N | |||
| Sussex | NJ | 2026-05-07 13:30 | ASOS | 61 | 26 | 27 | 29.81 | 10 | N | |||
| Sussex | NJ | 2026-05-07 13:53 | ASOS | 61 | 28 | 28 | 29.81 | 8 | NNE | |||
| Sussex | NJ | 2026-05-07 14:15 | ASOS | 61 | 26 | 27 | 29.80 | 7 | W | |||
| Sussex | NJ | 2026-05-07 14:20 | ASOS | 61 | 26 | 27 | 29.80 | 9 | N | |||
| Sussex | NJ | 2026-05-07 14:25 | ASOS | 63 | 26 | 25 | 29.80 | 8 | N | |||
| Sussex | NJ | 2026-05-07 14:35 | ASOS | 63 | 28 | 27 | 29.80 | 9 | N | |||
| Sussex | NJ | 2026-05-07 15:10 | ASOS | 63 | 25 | 24 | 29.79 | 9 | NW | |||
| Sussex | NJ | 2026-05-07 16:25 | ASOS | 63 | 25 | 24 | 29.77 | |||||
| Sussex | NJ | 2026-05-07 15:15 | ASOS | 61 | 25 | 25 | 29.79 | 8 | NW | |||
| Sussex | NJ | 2026-05-07 15:20 | ASOS | 63 | 25 | 24 | 29.79 | 7 | WNW | |||
| Sussex | NJ | 2026-05-07 15:25 | ASOS | 61 | 26 | 27 | 29.78 | 6 | NNW | |||
| Sussex | NJ | 2026-05-07 15:53 | ASOS | 62 | 26 | 25 | 29.77 | 10 | N | |||
| Sussex | NJ | 2026-05-07 16:15 | ASOS | 64 | 26 | 24 | 29.77 | 9 | W | |||
| Sussex | NJ | 2026-05-07 16:20 | ASOS | 63 | 26 | 25 | 29.77 | |||||
| Sussex | NJ | 2026-05-07 07:15 | ASOS | 50 | 37 | 62 | 29.88 | 5 | NW | |||
| Sussex | NJ | 2026-05-07 06:40 | ASOS | 48 | 39 | 71 | 29.86 | 6 | NW | |||
| Sussex | NJ | 2026-05-06 19:53 | ASOS | 60 | 53 | 78 | 29.77 | 6 | NNW | |||
| Sussex | NJ | 2026-05-07 00:10 | ASOS | 54 | 43 | 67 | 29.84 | 3 | N | |||
| Sussex | NJ | 2026-05-06 23:15 | ASOS | 54 | 43 | 67 | 29.84 | 0 | N | |||
| Sussex | NJ | 2026-05-06 23:20 | ASOS | 54 | 43 | 67 | 29.84 | 0 | N | |||
| Sussex | NJ | 2026-05-06 23:25 | ASOS | 54 | 43 | 67 | 29.84 | 0 | N | |||
| Sussex | NJ | 2026-05-06 23:30 | ASOS | 54 | 43 | 67 | 29.84 | 0 | N | |||
| Sussex | NJ | 2026-05-06 23:35 | ASOS | 54 | 43 | 67 | 29.84 | 3 | NNW | |||
| Sussex | NJ | 2026-05-06 23:53 | ASOS | 53 | 43 | 69 | 29.84 | 3 | NW | |||
| Sussex | NJ | 2026-05-07 00:15 | ASOS | 54 | 43 | 67 | 29.85 | 0 | N | |||
| Sussex | NJ | 2026-05-06 22:40 | ASOS | 54 | 45 | 71 | 29.84 | 0 | N | |||
| Sussex | NJ | 2026-05-07 00:20 | ASOS | 54 | 43 | 67 | 29.85 | 0 | N | |||
| Sussex | NJ | 2026-05-07 00:25 | ASOS | 54 | 43 | 67 | 29.85 | 3 | NE | |||
| Sussex | NJ | 2026-05-07 00:30 | ASOS | 54 | 43 | 67 | 29.84 | 3 | NNE | |||
| Sussex | NJ | 2026-05-07 00:35 | ASOS | 52 | 43 | 71 | 29.84 | 0 | N | |||
| Sussex | NJ | 2026-05-07 00:53 | ASOS | 52 | 42 | 69 | 29.84 | 3 | N | |||
| Sussex | NJ | 2026-05-07 01:20 | ASOS | 52 | 41 | 66 | 29.83 | 5 | N | |||
| Sussex | NJ | 2026-05-06 22:53 | ASOS | 54 | 43 | 66 | 29.83 | 6 | N | |||
| Sussex | NJ | 2026-05-06 22:35 | ASOS | 54 | 45 | 71 | 29.84 | 0 | N | |||
| Sussex | NJ | 2026-05-07 01:30 | ASOS | 52 | 41 | 66 | 29.84 | 0 | N | |||
| Sussex | NJ | 2026-05-06 21:15 | ASOS | 55 | 44 | 67 | 29.82 | 3 | N | |||
| Sussex | NJ | 2026-05-06 20:15 | ASOS | 59 | 50 | 72 | 29.78 | 0 | N | |||
| Sussex | NJ | 2026-05-06 20:20 | ASOS | 57 | 50 | 77 | 29.79 | 6 | NW | |||
| Sussex | NJ | 2026-05-06 20:25 | ASOS | 57 | 50 | 77 | 29.79 | 5 | NNE | |||
| Sussex | NJ | 2026-05-06 20:30 | ASOS | 57 | 50 | 77 | 29.80 | 6 | WNW | |||
| Sussex | NJ | 2026-05-06 20:35 | ASOS | 57 | 48 | 72 | 29.80 | 5 | NW | |||
| Sussex | NJ | 2026-05-06 20:53 | ASOS | 56 | 47 | 72 | 29.81 | 5 | WNW | |||
| Sussex | NJ | 2026-05-06 21:20 | ASOS | 55 | 44 | 67 | 29.83 | 0 | N | |||
| Sussex | NJ | 2026-05-06 22:30 | ASOS | 54 | 45 | 71 | 29.84 | 0 | N | |||
| Sussex | NJ | 2026-05-06 21:25 | ASOS | 55 | 44 | 67 | 29.83 | 3 | NNW | |||
| Sussex | NJ | 2026-05-06 21:30 | ASOS | 55 | 44 | 67 | 29.83 | 6 | NNW | |||
| Sussex | NJ | 2026-05-06 21:35 | ASOS | 55 | 44 | 67 | 29.83 | 3 | N | |||
| Sussex | NJ | 2026-05-06 21:53 | ASOS | 55 | 44 | 66 | 29.85 | |||||
| Sussex | NJ | 2026-05-06 22:20 | ASOS | 54 | 45 | 71 | 29.85 | 3 | WNW | |||
| Sussex | NJ | 2026-05-06 22:25 | ASOS | 54 | 45 | 71 | 29.84 | 0 | N | |||
| Sussex | NJ | 2026-05-07 01:25 | ASOS | 52 | 41 | 66 | 29.83 | 3 | NNW | |||
| Sussex | NJ | 2026-05-07 01:35 | ASOS | 52 | 41 | 66 | 29.85 | 0 | N | |||
| Sussex | NJ | 2026-05-07 06:35 | ASOS | 50 | 39 | 66 | 29.86 | 7 | NNW | |||
| Sussex | NJ | 2026-05-07 05:25 | ASOS | 48 | 39 | 71 | 29.84 | 5 | NNW | |||
| Sussex | NJ | 2026-05-07 04:15 | ASOS | 48 | 41 | 76 | 29.84 | 9 | NNW | |||
| Sussex | NJ | 2026-05-07 04:20 | ASOS | 48 | 41 | 76 | 29.84 | 7 | NNW | |||
| Sussex | NJ | 2026-05-07 04:25 | ASOS | 48 | 41 | 76 | 29.83 | 10 | N | |||
| Sussex | NJ | 2026-05-07 04:30 | ASOS | 48 | 39 | 71 | 29.84 | 7 | NNW | |||
| Sussex | NJ | 2026-05-07 04:53 | ASOS | 49 | 40 | 71 | 29.84 | 3 | ||||
| Sussex | NJ | 2026-05-07 05:20 | ASOS | 48 | 39 | 71 | 29.84 | 0 | N | |||
| Sussex | NJ | 2026-05-07 05:30 | ASOS | 48 | 39 | 71 | 29.84 | 3 | NW | |||
| Sussex | NJ | 2026-05-07 04:05 | ASOS | 48 | 41 | 76 | 29.85 | 7 | N | |||
| Sussex | NJ | 2026-05-07 05:35 | ASOS | 48 | 39 | 71 | 29.84 | 3 | WNW | |||
| Sussex | NJ | 2026-05-07 05:53 | ASOS | 49 | 39 | 69 | 29.85 | 0 | N | |||
| Sussex | NJ | 2026-05-07 06:15 | ASOS | 48 | 39 | 71 | 29.85 | 3 | N | |||
| Sussex | NJ | 2026-05-07 06:20 | ASOS | 50 | 39 | 66 | 29.85 | 5 | NW | |||
| Sussex | NJ | 2026-05-07 06:25 | ASOS | 48 | 39 | 71 | 29.86 | 6 | NNW | |||
| Sussex | NJ | 2026-05-07 06:30 | ASOS | 50 | 39 | 66 | 29.86 | 6 | N | |||
| Sussex | NJ | 2026-05-07 04:10 | ASOS | 48 | 41 | 76 | 29.85 | 6 | N | |||
| Sussex | NJ | 2026-05-07 04:00 | ASOS | 48 | 43 | 81 | 29.85 | 6 | NNW | |||
| Sussex | NJ | 2026-05-07 01:53 | ASOS | 50 | 43 | 77 | 29.85 | 0 | N | |||
| Sussex | NJ | 2026-05-07 02:30 | ASOS | 48 | 43 | 81 | 29.85 | 0 | N | |||
| Sussex | NJ | 2026-05-07 02:00 | ASOS | 50 | 43 | 76 | 29.85 | 0 | N | |||
| Sussex | NJ | 2026-05-07 02:05 | ASOS | 48 | 43 | 81 | 29.85 | 0 | N | |||
| Sussex | NJ | 2026-05-07 02:10 | ASOS | 50 | 43 | 76 | 29.85 | 0 | N | |||
| Sussex | NJ | 2026-05-07 02:15 | ASOS | 48 | 43 | 81 | 29.85 | 0 | N | |||
| Sussex | NJ | 2026-05-07 02:20 | ASOS | 50 | 43 | 76 | 29.85 | 0 | N | |||
| Sussex | NJ | 2026-05-07 02:25 | ASOS | 50 | 43 | 76 | 29.86 | 0 | N | |||
| Sussex | NJ | 2026-05-07 02:35 | ASOS | 48 | 43 | 81 | 29.85 | 0 | N | |||
| Sussex | NJ | 2026-05-07 03:53 | ASOS | 49 | 42 | 77 | 29.85 | 3 | ||||
| Sussex | NJ | 2026-05-07 02:53 | ASOS | 49 | 43 | 80 | 29.85 | 0 | N | |||
| Sussex | NJ | 2026-05-07 03:15 | ASOS | 48 | 43 | 81 | 29.86 | 0 | N | |||
| Sussex | NJ | 2026-05-07 03:20 | ASOS | 48 | 45 | 87 | 29.85 | 0 | N | |||
| Sussex | NJ | 2026-05-07 03:25 | ASOS | 48 | 43 | 81 | 29.85 | 3 | N | |||
| Sussex | NJ | 2026-05-07 03:30 | ASOS | 48 | 43 | 81 | 29.85 | 3 | N | |||
| Sussex | NJ | 2026-05-07 03:35 | ASOS | 48 | 43 | 81 | 29.85 | 3 | NNW | |||
| Sussex | NJ | 2026-05-07 19:30 | ASOS | 57 | 26 | 31 | 29.78 | 5 | N |
data collection created in 0.020859956741333 (queried in 0.004729) rendered in: 0.00019097328186035

